Terminal Aerodrome Forecast
Issued by NWS

Home | Current Version | Previous Version | Text Only | Print | Product List | Glossary On
Versions: 1 2 3 4 5 6 7 8 9 10 11 12 13 14 15 16 17
025
FTUS45 KTFX 281732
TAFHLN
TAF
KHLN 281732Z 2818/2918 36010KT P6SM VCSH SCT025 OVC040
      TEMPO 2819/2823 -SHRASN BKN025
     FM290100 32007KT P6SM SCT030 BKN040
     FM290600 VRB04KT P6SM VCFG SCT010 BKN030=

USA.gov is the U.S. government's official web portal to all federal, state and local government web resources and services.